Latest Weather Observations for Strathalbyn

IDS60901

Issued at 9:41 am CST Saturday 25 April 2015 (issued every 10 minutes, with the page automatically refreshed every 10 minutes)

About weather observations | Map of Adelaide area stations | Latest observations for Adelaide area | Other Formats
Station Details ID: 024580 Name: STRATHALBYN RACECOURSE Lat: -35.28 Lon: 138.89 Height: 58.0 m
Data from the previous 72 hours. | See also: Recent months at Strathalbyn
Date/Time
CST
Tmp

°C
App
Tmp
°C
Dew
Point
°C
Rel
Hum
%
Delta-T

°C
Wind Press
QNH
hPa
Press
MSL
hPa
Rain
since
9 am
mm
Dir
 
Spd
km/h
Gust
km/h
Spd
kts
Gust
kts
25/09:30am 14.4 10.5 9.6 73 2.5 S 20 28 11 15 1012.7 - 0.0
25/09:00am 13.5 10.4 9.0 74 2.3 SSW 15 19 8 10 1012.5 1012.4 15.6
25/08:30am 11.9 10.0 8.9 82 1.5 SSW 9 13 5 7 1012.2 - 15.6
25/08:00am 10.4 8.6 8.0 85 1.2 SSW 7 9 4 5 1011.5 - 15.6
25/07:30am 8.9 6.5 7.2 89 0.8 S 9 11 5 6 1011.0 - 15.6
25/07:00am 8.0 5.9 6.5 90 0.7 S 7 9 4 5 1010.3 - 15.6
25/06:30am 7.8 5.2 6.3 90 0.7 S 9 11 5 6 1009.6 - 15.6
25/06:00am 8.4 5.4 7.5 94 0.4 SSW 13 15 7 8 1009.0 1008.9 15.6
25/05:30am 8.9 4.8 7.7 92 0.6 S 19 22 10 12 1008.4 - 15.6
25/05:00am 9.3 4.8 8.4 94 0.4 S 22 26 12 14 1007.4 - 15.6
25/04:30am 9.3 5.0 7.9 91 0.7 S 20 24 11 13 1006.7 - 15.6
25/04:00am 8.9 6.3 7.7 92 0.6 S 11 13 6 7 1005.9 - 15.4
25/03:30am 8.6 5.9 7.5 93 0.5 SE 11 13 6 7 1005.2 - 15.4
25/03:00am 8.4 6.4 7.0 91 0.7 ESE 7 9 4 5 1004.3 1004.2 15.4
25/02:30am 8.7 6.0 7.3 91 0.7 ESE 11 17 6 9 1003.7 - 15.4
25/02:00am 8.9 5.1 7.4 90 0.7 E 17 24 9 13 1002.7 - 15.0
25/01:30am 9.0 4.8 7.5 90 0.7 ENE 19 24 10 13 1002.2 - 13.4
25/01:00am 9.2 6.1 7.2 87 0.9 E 13 17 7 9 1002.3 - 10.4
25/12:30am 9.5 5.1 7.3 86 1.0 NE 20 26 11 14 1002.0 - 9.2
25/12:00am 9.7 5.0 7.6 87 1.0 NE 22 28 12 15 1001.8 1001.8 9.0
 
Date/Time
CST
Tmp

°C
App
Tmp
°C
Dew
Point
°C
Rel
Hum
%
Delta-T

°C
Wind Press
QNH
hPa
Press
MSL
hPa
Rain
since
9 am
mm
Dir
 
Spd
km/h
Gust
km/h
Spd
kts
Gust
kts
24/11:30pm 9.7 5.8 7.3 85 1.1 NNE 17 24 9 13 1002.0 - 8.2
24/11:00pm 10.0 5.7 7.9 87 1.0 NNE 20 26 11 14 1002.2 - 7.4
24/10:30pm 9.5 5.7 7.4 87 1.0 NE 17 22 9 12 1002.5 - 6.8
24/10:00pm 9.4 5.0 7.2 86 1.0 NNE 20 26 11 14 1002.7 - 6.8
24/09:30pm 9.7 6.2 7.1 84 1.2 N 15 22 8 12 1003.5 - 6.4
24/09:00pm 9.9 6.5 7.5 85 1.2 N 15 20 8 11 1004.3 1004.2 6.2
24/08:30pm 10.4 6.5 7.3 81 1.5 N 17 24 9 13 1004.5 - 2.8
24/08:00pm 10.6 6.3 7.1 79 1.7 NNE 19 24 10 13 1004.8 - 1.6
24/07:30pm 9.9 6.3 6.6 80 1.6 NE 15 19 8 10 1005.4 - 1.6
24/07:00pm 10.8 7.2 6.7 76 1.9 NE 15 20 8 11 1006.2 - 1.6
24/06:30pm 11.9 8.9 5.8 66 2.9 NNW 11 20 6 11 1005.9 - 1.6
24/06:00pm 12.2 6.9 5.1 62 3.3 WNW 22 35 12 19 1006.1 1006.0 1.6
24/05:30pm 12.6 7.7 5.3 61 3.4 WNW 20 33 11 18 1006.3 - 1.6
24/05:00pm 13.1 8.7 6.5 64 3.2 WNW 19 26 10 14 1006.1 - 1.6
24/04:30pm 13.9 9.0 5.0 55 4.2 W 20 35 11 19 1005.9 - 1.6
24/04:17pm 14.6 8.0 4.0 49 4.9 W 28 46 15 25 1005.7 - 1.6
24/04:00pm 14.7 8.0 5.8 55 4.3 W 30 46 16 25 1005.9 - 1.6
24/03:56pm 14.4 8.1 5.5 55 4.2 W 28 46 15 25 1005.9 - 1.6
24/03:30pm 14.7 7.5 5.8 55 4.3 W 33 44 18 24 1006.0 - 1.6
24/03:06pm 15.6 9.4 6.1 53 4.6 W 28 46 15 25 1006.0 - 1.6
24/03:00pm 15.8 8.7 5.7 51 4.9 W 32 46 17 25 1006.1 1006.0 1.6
24/02:30pm 15.6 8.2 6.6 55 4.4 W 35 48 19 26 1005.7 - 1.6
24/02:03pm 15.7 9.6 6.4 54 4.5 W 28 52 15 28 1005.8 - 1.6
24/02:00pm 16.0 10.8 7.2 56 4.4 W 24 41 13 22 1005.8 - 1.6
24/01:44pm 15.2 8.2 6.2 55 4.4 W 32 50 17 27 1005.9 - 1.6
24/01:30pm 15.4 10.0 8.2 62 3.6 W 26 37 14 20 1006.0 - 1.6
24/01:00pm 14.8 10.7 10.2 74 2.4 W 22 35 12 19 1006.3 - 1.6
24/12:30pm 13.6 9.8 9.1 74 2.3 W 19 28 10 15 1006.7 - 1.6
24/12:00pm 13.2 9.5 9.5 78 1.9 W 19 26 10 14 1007.1 1007.0 1.6
24/11:30am 12.7 7.9 9.0 78 1.9 W 24 35 13 19 1007.3 - 1.4
24/11:00am 13.0 7.9 9.3 78 1.9 WSW 26 39 14 21 1007.6 - 1.4
24/10:30am 13.7 8.0 9.9 78 2.0 WSW 30 48 16 26 1007.1 - 1.4
24/10:10am 13.3 7.6 9.7 79 1.8 WSW 30 50 16 27 1006.5 - 1.4
24/10:00am 16.3 13.1 11.2 72 2.7 NNW 19 32 10 17 1005.9 - 0.0
24/09:30am 15.1 11.8 11.5 79 1.9 N 20 30 11 16 1006.5 - 0.0
24/09:00am 14.4 11.7 11.6 83 1.5 N 17 24 9 13 1006.9 1006.8 0.4
24/08:30am 14.4 12.2 12.1 86 1.2 N 15 20 8 11 1007.1 - 0.4
24/08:00am 15.0 11.7 11.6 80 1.8 NW 20 30 11 16 1007.0 - 0.0
24/07:30am 14.5 12.0 11.1 80 1.8 NNW 15 24 8 13 1006.9 - 0.0
24/07:00am 14.2 12.4 10.8 80 1.8 NW 11 19 6 10 1007.1 - 0.0
24/06:30am 14.0 12.5 10.6 80 1.8 WNW 9 15 5 8 1007.6 - 0.0
24/06:00am 14.0 11.7 10.4 79 1.9 WNW 13 19 7 10 1007.7 1007.6 0.0
24/05:30am 13.8 11.9 10.6 81 1.7 W 11 13 6 7 1007.7 - 0.0
24/05:00am 13.4 12.7 10.2 81 1.7 W 4 9 2 5 1007.8 - 0.0
24/04:30am 14.1 12.6 10.7 80 1.8 W 9 11 5 6 1007.8 - 0.0
24/04:00am 13.9 13.0 11.2 84 1.4 W 7 11 4 6 1008.3 - 0.0
24/03:30am 14.1 13.3 11.1 82 1.6 W 6 7 3 4 1008.6 - 0.0
24/03:00am 14.4 12.3 11.0 80 1.8 W 13 19 7 10 1009.1 1009.0 0.0
24/02:30am 13.2 12.2 10.9 86 1.2 SW 7 9 4 5 1009.4 - 0.0
24/02:00am 13.2 12.1 10.7 85 1.3 SW 7 9 4 5 1009.6 - 0.0
24/01:30am 12.8 11.9 10.5 86 1.2 SW 6 7 3 4 1010.0 - 0.0
24/01:00am 12.8 12.2 10.5 86 1.2 SW 4 6 2 3 1010.5 - 0.0
24/12:30am 12.7 11.5 10.2 85 1.3 SW 7 9 4 5 1010.8 - 0.0
24/12:00am 12.6 10.9 10.0 84 1.3 SW 9 11 5 6 1011.0 1010.9 0.0
 
Date/Time
CST
Tmp

°C
App
Tmp
°C
Dew
Point
°C
Rel
Hum
%
Delta-T

°C
Wind Press
QNH
hPa
Press
MSL
hPa
Rain
since
9 am
mm
Dir
 
Spd
km/h
Gust
km/h
Spd
kts
Gust
kts
23/11:30pm 12.7 10.7 10.1 84 1.3 SW 11 13 6 7 1011.4 - 0.0
23/11:00pm 12.5 10.1 10.0 85 1.3 SW 13 15 7 8 1012.0 - 0.0
23/10:30pm 12.0 10.3 9.7 86 1.2 SW 9 13 5 7 1012.4 - 0.0
23/10:00pm 12.4 10.7 10.0 85 1.2 SW 9 11 5 6 1012.7 - 0.0
23/09:30pm 12.6 11.0 10.3 86 1.2 SW 9 11 5 6 1013.1 - 0.0
23/09:00pm 12.4 11.2 10.3 87 1.1 SW 7 11 4 6 1013.3 1013.2 0.0
23/08:30pm 12.7 11.8 10.6 87 1.1 SW 6 6 3 3 1013.4 - 0.0
23/08:00pm 13.2 12.1 10.6 84 1.4 SW 7 9 4 5 1013.4 - 0.0
23/07:30pm 13.4 12.5 10.6 83 1.5 SW 6 7 3 4 1013.8 - 0.0
23/07:00pm 14.2 13.2 11.0 81 1.7 SW 7 9 4 5 1013.8 - 0.0
23/06:30pm 14.5 13.6 11.3 81 1.7 SSW 7 9 4 5 1013.9 - 0.0
23/06:00pm 14.7 13.2 10.7 77 2.1 SSW 9 13 5 7 1013.8 1013.7 0.0
23/05:30pm 15.1 13.3 10.7 75 2.3 SSW 11 15 6 8 1013.9 - 0.0
23/05:00pm 15.4 13.1 10.6 73 2.5 SSW 13 19 7 10 1013.9 - 0.0
23/04:30pm 16.0 13.0 10.7 71 2.8 S 17 20 9 11 1013.8 - 0.0
23/04:00pm 16.4 13.7 10.5 68 3.1 SSW 15 20 8 11 1014.0 - 0.0
23/03:30pm 16.8 15.1 11.1 69 3.1 SSW 11 17 6 9 1014.3 - 0.0
23/03:00pm 16.4 14.9 10.5 68 3.1 SSW 9 13 5 7 1014.6 1014.6 0.0
23/02:30pm 15.9 14.4 10.4 70 2.9 SSW 9 15 5 8 1014.7 - 0.0
23/02:00pm 15.6 13.5 11.0 74 2.5 SSW 13 17 7 9 1014.8 - 0.0
23/01:30pm 15.4 12.9 11.2 76 2.3 SSW 15 17 8 9 1015.3 - 0.0
23/01:00pm 15.4 13.4 11.6 78 2.1 SSW 13 17 7 9 1015.1 - 0.0
23/12:30pm 15.5 13.4 11.3 76 2.3 SSW 13 17 7 9 1016.3 - 0.0
23/12:00pm 15.5 13.8 11.1 75 2.4 SW 11 17 6 9 1017.2 1017.2 0.0
23/11:30am 15.1 14.1 11.1 77 2.1 SW 7 11 4 6 1017.6 - 0.0
23/11:00am 14.7 13.8 11.3 80 1.8 SW 7 13 4 7 1018.2 - 0.0
23/10:30am 14.2 12.8 10.8 80 1.8 SW 9 13 5 7 1018.8 - 0.0
23/10:00am 13.3 12.2 10.7 84 1.4 SW 7 11 4 6 1019.1 - 0.0
23/09:30am 12.7 11.2 10.4 86 1.2 SW 9 13 5 7 1019.1 - 0.0
23/09:00am 12.4 10.8 10.3 87 1.1 SW 9 13 5 7 1019.4 1019.4 0.0
23/08:30am 12.1 10.9 10.3 89 0.9 SW 7 9 4 5 1019.8 - 0.0
23/08:00am 11.8 11.4 11.0 95 0.4 SW 4 7 2 4 1019.6 - 0.0
23/07:30am 10.3 10.2 9.4 94 0.4 CALM 0 0 0 0 1019.5 - 0.0
23/07:00am 10.1 9.4 8.7 91 0.7 SW 2 7 1 4 1019.2 - 0.0
23/06:30am 10.7 9.4 9.8 94 0.5 SW 7 9 4 5 1019.4 - 0.0
23/06:00am 10.9 9.7 9.7 92 0.6 SW 6 7 3 4 1019.3 1019.3 0.0
23/05:30am 11.0 9.3 9.8 92 0.6 SW 9 9 5 5 1019.3 - 0.0
23/05:00am 11.1 9.8 9.9 92 0.6 SW 7 7 4 4 1019.3 - 0.0
23/04:30am 11.4 10.1 10.1 92 0.7 SW 7 7 4 4 1019.2 - 0.0
23/04:00am 11.5 10.2 10.1 91 0.7 SW 7 9 4 5 1019.3 - 0.0
23/03:30am 11.7 10.5 10.3 91 0.7 SW 7 7 4 4 1019.4 - 0.0
23/03:00am 11.9 10.9 10.3 90 0.8 SW 6 7 3 4 1019.7 1019.7 0.0
23/02:30am 12.7 11.3 10.9 89 0.9 SW 9 11 5 6 1020.2 - 0.0
23/02:00am 13.0 11.7 11.2 89 1.0 SW 9 11 5 6 1020.6 - 0.0
23/01:30am 13.4 11.8 11.5 88 1.0 SW 11 13 6 7 1021.1 - 0.0
23/01:00am 13.7 12.5 11.7 88 1.1 SW 9 11 5 6 1021.2 - 0.0
23/12:30am 13.6 12.4 11.7 88 1.0 SW 9 11 5 6 1021.5 - 0.0
23/12:00am 13.6 12.4 11.7 88 1.0 SW 9 13 5 7 1021.4 1021.3 0.0
 
Date/Time
CST
Tmp

°C
App
Tmp
°C
Dew
Point
°C
Rel
Hum
%
Delta-T

°C
Wind Press
QNH
hPa
Press
MSL
hPa
Rain
since
9 am
mm
Dir
 
Spd
km/h
Gust
km/h
Spd
kts
Gust
kts
22/11:30pm 13.8 11.9 11.7 87 1.1 SW 13 15 7 8 1021.8 - 0.0
22/11:00pm 13.8 12.2 11.5 86 1.2 SW 11 13 6 7 1022.2 - 0.0
22/10:30pm 13.7 11.7 11.4 86 1.2 SW 13 15 7 8 1022.5 - 0.0
22/10:00pm 13.5 11.4 11.2 86 1.2 SW 13 15 7 8 1022.8 - 0.0
22/09:30pm 13.3 11.1 10.8 85 1.3 SW 13 15 7 8 1022.9 - 0.0
22/09:00pm 13.0 10.7 10.5 85 1.3 SW 13 15 7 8 1023.1 1023.0 0.0
22/08:30pm 13.1 11.2 10.6 85 1.3 SW 11 15 6 8 1023.1 - 0.0
22/08:00pm 13.2 10.9 10.6 84 1.4 SSW 13 17 7 9 1023.3 - 0.0
22/07:30pm 13.3 11.1 10.7 84 1.4 SSW 13 15 7 8 1022.9 - 0.0
22/07:00pm 13.1 11.1 10.3 83 1.5 SSW 11 13 6 7 1023.2 - 0.0
22/06:30pm 13.3 11.0 10.3 82 1.6 SSW 13 15 7 8 1023.2 - 0.0
22/06:00pm 13.5 11.1 10.1 80 1.8 SSW 13 17 7 9 1023.2 1023.1 0.0
22/05:30pm 14.3 11.2 10.3 77 2.1 S 17 20 9 11 1023.2 - 0.0
22/05:00pm 14.9 10.9 10.3 74 2.4 S 22 30 12 16 1022.8 - 0.0
22/04:30pm 15.5 11.2 9.2 66 3.2 S 22 26 12 14 1023.0 - 0.0
22/04:00pm 15.9 11.9 9.1 64 3.5 SSW 20 28 11 15 1023.1 - 0.0
22/03:30pm 15.7 11.7 8.9 64 3.5 SSW 20 26 11 14 1023.1 - 0.0
22/03:00pm 15.8 12.0 9.2 65 3.4 SSW 19 26 10 14 1023.5 1023.4 0.0
22/02:30pm 15.8 11.9 8.8 63 3.6 S 19 28 10 15 1023.6 - 0.0
22/02:00pm 15.9 12.3 9.8 67 3.2 S 19 26 10 14 1023.6 - 0.0
22/01:30pm 15.8 12.4 9.0 64 3.5 S 17 24 9 13 1024.0 - 0.0
22/01:00pm 16.2 13.2 9.4 64 3.5 SSW 15 24 8 13 1024.3 - 0.0
22/12:30pm 15.4 12.0 9.3 67 3.1 S 17 24 9 13 1024.8 - 0.0
22/12:00pm 15.5 13.2 10.3 71 2.7 S 13 19 7 10 1025.4 1025.3 0.0
22/11:30am 15.1 12.8 10.3 73 2.5 SSE 13 17 7 9 1025.9 - 0.0
22/11:00am 14.2 11.0 8.6 69 2.8 S 15 20 8 11 1026.4 - 0.0
22/10:30am 14.0 11.7 9.0 72 2.5 S 11 19 6 10 1026.8 - 0.0
22/10:00am 13.1 11.7 9.4 78 1.9 SW 7 11 4 6 1027.0 - 0.0

Latest Capital City Observations: Canberra | Sydney | Melbourne | Brisbane | Adelaide | Perth | Hobart | Darwin

Other Formats:

Comma delimited format used in spreadsheet applications
http://www.bom.gov.au/fwo/IDS60901/IDS60901.94814.axf

JavaScript Object Notation format (JSON) in row-major order
http://www.bom.gov.au/fwo/IDS60901/IDS60901.94814.json